sensor_id;sensor_type;location;lat;lon;timestamp;pressure;altitude;pressure_sealevel;temperature;humidity
5500;BME280;2772;42.700;23.304;2023-08-08T00:01:05;94942.66;;;19.07;100.00
5500;BME280;2772;42.700;23.304;2023-08-08T00:03:32;94948.22;;;18.91;100.00
5500;BME280;2772;42.700;23.304;2023-08-08T00:06:01;94945.16;;;18.92;100.00
5500;BME280;2772;42.700;23.304;2023-08-08T00:08:28;94956.09;;;18.77;100.00
5500;BME280;2772;42.700;23.304;2023-08-08T00:10:54;94948.56;;;18.63;100.00
5500;BME280;2772;42.700;23.304;2023-08-08T00:13:22;94946.88;;;18.55;100.00
5500;BME280;2772;42.700;23.304;2023-08-08T00:15:48;94941.66;;;18.43;100.00
5500;BME280;2772;42.700;23.304;2023-08-08T00:18:15;94945.09;;;18.40;100.00
5500;BME280;2772;42.700;23.304;2023-08-08T00:20:42;94940.06;;;18.20;100.00
5500;BME280;2772;42.700;23.304;2023-08-08T00:23:10;94942.22;;;18.11;100.00
5500;BME280;2772;42.700;23.304;2023-08-08T00:25:37;94940.22;;;18.08;100.00
5500;BME280;2772;42.700;23.304;2023-08-08T00:28:04;94939.25;;;17.97;100.00
5500;BME280;2772;42.700;23.304;2023-08-08T00:30:30;94943.69;;;17.89;100.00
5500;BME280;2772;42.700;23.304;2023-08-08T00:32:57;94949.03;;;17.86;100.00
5500;BME280;2772;42.700;23.304;2023-08-08T00:35:24;94946.34;;;17.86;100.00
5500;BME280;2772;42.700;23.304;2023-08-08T00:37:51;94957.41;;;17.81;100.00
5500;BME280;2772;42.700;23.304;2023-08-08T00:40:19;94952.38;;;17.79;100.00
5500;BME280;2772;42.700;23.304;2023-08-08T00:42:46;94941.66;;;17.64;100.00
5500;BME280;2772;42.700;23.304;2023-08-08T00:45:12;94946.78;;;17.69;100.00
5500;BME280;2772;42.700;23.304;2023-08-08T00:47:39;94955.63;;;17.69;100.00
5500;BME280;2772;42.700;23.304;2023-08-08T00:50:07;94966.63;;;17.61;100.00
5500;BME280;2772;42.700;23.304;2023-08-08T00:52:35;94968.41;;;17.37;100.00
5500;BME280;2772;42.700;23.304;2023-08-08T00:55:03;94957.13;;;17.32;100.00
5500;BME280;2772;42.700;23.304;2023-08-08T00:57:31;94966.06;;;17.36;100.00
5500;BME280;2772;42.700;23.304;2023-08-08T01:00:00;94966.13;;;17.39;100.00
5500;BME280;2772;42.700;23.304;2023-08-08T01:02:28;94971.56;;;17.24;100.00
5500;BME280;2772;42.700;23.304;2023-08-08T01:04:55;94963.56;;;17.27;100.00
5500;BME280;2772;42.700;23.304;2023-08-08T01:07:27;94970.34;;;17.21;100.00
5500;BME280;2772;42.700;23.304;2023-08-08T01:10:02;94985.38;;;17.22;100.00
5500;BME280;2772;42.700;23.304;2023-08-08T01:12:37;94988.75;;;17.19;100.00
5500;BME280;2772;42.700;23.304;2023-08-08T01:15:07;94989.63;;;17.23;100.00
5500;BME280;2772;42.700;23.304;2023-08-08T01:17:35;94994.06;;;17.16;100.00
5500;BME280;2772;42.700;23.304;2023-08-08T01:20:04;94991.81;;;17.18;100.00
5500;BME280;2772;42.700;23.304;2023-08-08T01:22:36;94987.47;;;17.13;100.00
5500;BME280;2772;42.700;23.304;2023-08-08T01:25:07;94985.63;;;17.17;100.00
5500;BME280;2772;42.700;23.304;2023-08-08T01:27:35;94986.19;;;17.07;100.00
5500;BME280;2772;42.700;23.304;2023-08-08T01:30:06;94990.63;;;17.00;100.00
5500;BME280;2772;42.700;23.304;2023-08-08T01:32:38;94990.00;;;16.91;100.00
5500;BME280;2772;42.700;23.304;2023-08-08T01:35:06;94989.31;;;16.78;100.00
5500;BME280;2772;42.700;23.304;2023-08-08T01:37:36;94996.09;;;16.72;100.00
5500;BME280;2772;42.700;23.304;2023-08-08T01:40:09;94999.41;;;16.81;100.00
5500;BME280;2772;42.700;23.304;2023-08-08T01:42:36;95011.13;;;16.73;100.00
5500;BME280;2772;42.700;23.304;2023-08-08T01:45:04;95014.41;;;16.67;100.00
5500;BME280;2772;42.700;23.304;2023-08-08T01:47:31;95015.63;;;16.69;100.00
5500;BME280;2772;42.700;23.304;2023-08-08T01:49:58;95011.03;;;16.70;100.00
5500;BME280;2772;42.700;23.304;2023-08-08T01:52:25;95008.16;;;16.78;100.00
5500;BME280;2772;42.700;23.304;2023-08-08T01:54:52;95028.56;;;16.79;100.00
5500;BME280;2772;42.700;23.304;2023-08-08T01:57:20;95022.72;;;16.77;100.00
5500;BME280;2772;42.700;23.304;2023-08-08T01:59:48;95022.03;;;16.80;100.00
5500;BME280;2772;42.700;23.304;2023-08-08T02:02:15;95033.50;;;16.77;100.00
5500;BME280;2772;42.700;23.304;2023-08-08T02:04:43;95037.22;;;16.73;100.00
5500;BME280;2772;42.700;23.304;2023-08-08T02:07:10;95037.22;;;16.73;100.00
5500;BME280;2772;42.700;23.304;2023-08-08T02:09:36;95029.94;;;16.73;100.00
5500;BME280;2772;42.700;23.304;2023-08-08T02:12:04;95035.22;;;16.70;100.00
5500;BME280;2772;42.700;23.304;2023-08-08T02:14:32;95039.81;;;16.69;100.00
5500;BME280;2772;42.700;23.304;2023-08-08T02:16:59;95031.34;;;16.67;100.00
5500;BME280;2772;42.700;23.304;2023-08-08T02:19:25;95037.81;;;16.66;100.00
5500;BME280;2772;42.700;23.304;2023-08-08T02:21:52;95039.19;;;16.45;100.00
5500;BME280;2772;42.700;23.304;2023-08-08T02:24:19;95049.16;;;16.44;100.00
5500;BME280;2772;42.700;23.304;2023-08-08T02:26:45;95051.25;;;16.51;100.00
5500;BME280;2772;42.700;23.304;2023-08-08T02:29:12;95051.59;;;16.49;100.00
5500;BME280;2772;42.700;23.304;2023-08-08T02:31:40;95053.00;;;16.59;100.00
5500;BME280;2772;42.700;23.304;2023-08-08T02:34:07;95059.22;;;16.47;100.00
5500;BME280;2772;42.700;23.304;2023-08-08T02:36:34;95053.78;;;16.59;100.00
5500;BME280;2772;42.700;23.304;2023-08-08T02:39:01;95052.56;;;16.57;100.00
5500;BME280;2772;42.700;23.304;2023-08-08T02:41:28;95050.59;;;16.42;100.00
5500;BME280;2772;42.700;23.304;2023-08-08T02:43:55;95048.22;;;16.52;100.00
5500;BME280;2772;42.700;23.304;2023-08-08T02:46:21;95061.16;;;16.62;100.00
5500;BME280;2772;42.700;23.304;2023-08-08T02:48:50;95063.94;;;16.66;100.00
5500;BME280;2772;42.700;23.304;2023-08-08T02:51:16;95068.88;;;16.64;100.00
5500;BME280;2772;42.700;23.304;2023-08-08T02:53:43;95073.22;;;16.68;100.00
5500;BME280;2772;42.700;23.304;2023-08-08T02:56:10;95071.50;;;16.76;100.00
5500;BME280;2772;42.700;23.304;2023-08-08T02:58:37;95074.28;;;16.64;100.00
5500;BME280;2772;42.700;23.304;2023-08-08T03:01:03;95080.41;;;16.64;100.00
5500;BME280;2772;42.700;23.304;2023-08-08T03:03:30;95079.06;;;16.86;100.00
5500;BME280;2772;42.700;23.304;2023-08-08T03:05:58;95077.59;;;16.88;100.00
5500;BME280;2772;42.700;23.304;2023-08-08T03:08:25;95080.38;;;16.92;100.00
5500;BME280;2772;42.700;23.304;2023-08-08T03:10:53;95080.72;;;16.90;100.00
5500;BME280;2772;42.700;23.304;2023-08-08T03:13:19;95078.28;;;16.85;100.00
5500;BME280;2772;42.700;23.304;2023-08-08T03:15:47;95082.81;;;16.81;100.00
5500;BME280;2772;42.700;23.304;2023-08-08T03:18:14;95094.78;;;16.84;100.00
5500;BME280;2772;42.700;23.304;2023-08-08T03:20:41;95092.06;;;16.68;100.00
5500;BME280;2772;42.700;23.304;2023-08-08T03:23:09;95094.78;;;16.84;100.00
5500;BME280;2772;42.700;23.304;2023-08-08T03:25:36;95087.38;;;16.81;100.00
5500;BME280;2772;42.700;23.304;2023-08-08T03:28:03;95095.13;;;16.82;100.00
5500;BME280;2772;42.700;23.304;2023-08-08T03:30:30;95097.13;;;16.85;100.00
5500;BME280;2772;42.700;23.304;2023-08-08T03:32:56;95096.59;;;16.80;100.00
5500;BME280;2772;42.700;23.304;2023-08-08T03:35:23;95105.00;;;16.78;100.00
5500;BME280;2772;42.700;23.304;2023-08-08T03:37:50;95092.88;;;16.84;100.00
5500;BME280;2772;42.700;23.304;2023-08-08T03:40:18;95091.53;;;16.78;100.00
5500;BME280;2772;42.700;23.304;2023-08-08T03:42:45;95090.78;;;16.78;100.00
5500;BME280;2772;42.700;23.304;2023-08-08T03:45:12;95101.00;;;16.72;100.00
5500;BME280;2772;42.700;23.304;2023-08-08T03:47:39;95101.63;;;16.81;100.00
5500;BME280;2772;42.700;23.304;2023-08-08T03:50:07;95099.34;;;16.83;100.00
5500;BME280;2772;42.700;23.304;2023-08-08T03:52:34;95102.16;;;16.87;100.00
5500;BME280;2772;42.700;23.304;2023-08-08T03:55:03;95092.25;;;16.91;100.00
5500;BME280;2772;42.700;23.304;2023-08-08T03:57:31;95088.09;;;16.93;100.00
5500;BME280;2772;42.700;23.304;2023-08-08T03:59:58;95098.66;;;16.86;100.00
5500;BME280;2772;42.700;23.304;2023-08-08T04:02:25;95099.31;;;16.95;100.00
5500;BME280;2772;42.700;23.304;2023-08-08T04:04:53;95114.66;;;16.95;100.00
5500;BME280;2772;42.700;23.304;2023-08-08T04:07:20;95122.19;;;16.89;100.00
5500;BME280;2772;42.700;23.304;2023-08-08T04:09:47;95128.94;;;16.83;100.00
5500;BME280;2772;42.700;23.304;2023-08-08T04:12:13;95128.56;;;16.97;100.00
5500;BME280;2772;42.700;23.304;2023-08-08T04:46:06;95139.34;;;17.43;100.00
5500;BME280;2772;42.700;23.304;2023-08-08T04:48:35;95145.78;;;17.39;100.00
5500;BME280;2772;42.700;23.304;2023-08-08T04:51:04;95154.56;;;17.36;100.00
5500;BME280;2772;42.700;23.304;2023-08-08T04:53:31;95159.94;;;17.36;100.00
5500;BME280;2772;42.700;23.304;2023-08-08T04:55:58;95165.03;;;17.25;100.00
5500;BME280;2772;42.700;23.304;2023-08-08T04:58:25;95174.25;;;17.40;100.00
5500;BME280;2772;42.700;23.304;2023-08-08T05:00:52;95179.75;;;17.43;100.00
5500;BME280;2772;42.700;23.304;2023-08-08T05:03:21;95183.63;;;17.30;100.00
5500;BME280;2772;42.700;23.304;2023-08-08T05:05:48;95195.59;;;17.33;100.00
5500;BME280;2772;42.700;23.304;2023-08-08T05:08:15;95197.91;;;17.47;100.00
5500;BME280;2772;42.700;23.304;2023-08-08T05:10:42;95209.91;;;17.65;100.00
5500;BME280;2772;42.700;23.304;2023-08-08T05:13:09;95220.94;;;17.75;100.00
5500;BME280;2772;42.700;23.304;2023-08-08T05:15:36;95229.56;;;17.81;100.00
5500;BME280;2772;42.700;23.304;2023-08-08T05:18:03;95223.34;;;17.96;100.00
5500;BME280;2772;42.700;23.304;2023-08-08T05:20:31;95230.13;;;18.05;100.00
5500;BME280;2772;42.700;23.304;2023-08-08T05:22:58;95231.50;;;18.15;100.00
5500;BME280;2772;42.700;23.304;2023-08-08T05:25:25;95235.41;;;18.33;100.00
5500;BME280;2772;42.700;23.304;2023-08-08T05:27:51;95234.25;;;18.34;100.00
5500;BME280;2772;42.700;23.304;2023-08-08T05:30:19;95240.97;;;18.40;100.00
5500;BME280;2772;42.700;23.304;2023-08-08T05:32:45;95250.34;;;18.46;100.00
5500;BME280;2772;42.700;23.304;2023-08-08T05:35:13;95258.34;;;18.42;100.00
5500;BME280;2772;42.700;23.304;2023-08-08T05:37:41;95271.22;;;18.49;100.00
5500;BME280;2772;42.700;23.304;2023-08-08T05:40:08;95274.16;;;18.59;100.00
5500;BME280;2772;42.700;23.304;2023-08-08T05:42:36;95282.41;;;18.66;100.00
5500;BME280;2772;42.700;23.304;2023-08-08T05:45:03;95278.38;;;18.76;100.00
5500;BME280;2772;42.700;23.304;2023-08-08T05:47:29;95290.81;;;18.80;100.00
5500;BME280;2772;42.700;23.304;2023-08-08T05:49:56;95281.66;;;18.85;100.00
5500;BME280;2772;42.700;23.304;2023-08-08T05:52:23;95289.53;;;18.74;100.00
5500;BME280;2772;42.700;23.304;2023-08-08T05:54:51;95291.31;;;18.86;100.00
5500;BME280;2772;42.700;23.304;2023-08-08T05:57:18;95273.72;;;18.92;100.00
5500;BME280;2772;42.700;23.304;2023-08-08T05:59:44;95304.50;;;18.72;100.00
5500;BME280;2772;42.700;23.304;2023-08-08T06:02:11;95297.91;;;18.69;100.00
5500;BME280;2772;42.700;23.304;2023-08-08T06:04:38;95305.38;;;18.76;100.00
5500;BME280;2772;42.700;23.304;2023-08-08T06:07:05;95315.31;;;18.91;100.00
5500;BME280;2772;42.700;23.304;2023-08-08T06:09:32;95307.09;;;18.84;100.00
5500;BME280;2772;42.700;23.304;2023-08-08T06:12:00;95299.34;;;18.82;100.00
5500;BME280;2772;42.700;23.304;2023-08-08T06:14:27;95299.44;;;19.05;100.00
5500;BME280;2772;42.700;23.304;2023-08-08T06:16:53;95297.88;;;19.04;100.00
5500;BME280;2772;42.700;23.304;2023-08-08T06:19:20;95304.91;;;19.09;100.00
5500;BME280;2772;42.700;23.304;2023-08-08T06:21:47;95298.16;;;18.99;100.00
5500;BME280;2772;42.700;23.304;2023-08-08T06:24:14;95302.56;;;19.26;100.00
5500;BME280;2772;42.700;23.304;2023-08-08T06:26:41;95310.81;;;18.95;100.00
5500;BME280;2772;42.700;23.304;2023-08-08T06:29:09;95294.91;;;19.09;100.00
5500;BME280;2772;42.700;23.304;2023-08-08T06:31:36;95310.00;;;18.94;100.00
5500;BME280;2772;42.700;23.304;2023-08-08T06:34:03;95298.00;;;19.11;100.00
5500;BME280;2772;42.700;23.304;2023-08-08T06:36:29;95312.09;;;19.01;100.00
5500;BME280;2772;42.700;23.304;2023-08-08T06:38:56;95303.28;;;19.04;100.00
5500;BME280;2772;42.700;23.304;2023-08-08T06:41:23;95294.91;;;19.09;100.00
5500;BME280;2772;42.700;23.304;2023-08-08T06:43:51;95287.38;;;19.37;100.00
5500;BME280;2772;42.700;23.304;2023-08-08T06:46:20;95302.59;;;19.45;100.00
5500;BME280;2772;42.700;23.304;2023-08-08T06:48:46;95319.16;;;19.44;100.00
5500;BME280;2772;42.700;23.304;2023-08-08T06:51:13;95313.09;;;19.50;100.00
5500;BME280;2772;42.700;23.304;2023-08-08T06:53:40;95322.47;;;19.56;100.00
5500;BME280;2772;42.700;23.304;2023-08-08T06:56:07;95329.94;;;19.63;100.00
5500;BME280;2772;42.700;23.304;2023-08-08T06:58:34;95334.66;;;19.47;100.00
5500;BME280;2772;42.700;23.304;2023-08-08T07:01:02;95337.25;;;19.24;100.00
5500;BME280;2772;42.700;23.304;2023-08-08T07:03:30;95333.47;;;19.10;100.00
5500;BME280;2772;42.700;23.304;2023-08-08T07:05:57;95333.50;;;18.94;100.00
5500;BME280;2772;42.700;23.304;2023-08-08T07:08:26;95339.09;;;19.01;100.00
5500;BME280;2772;42.700;23.304;2023-08-08T07:10:53;95325.34;;;19.10;100.00
5500;BME280;2772;42.700;23.304;2023-08-08T07:13:19;95312.50;;;19.22;100.00
5500;BME280;2772;42.700;23.304;2023-08-08T07:15:46;95347.22;;;19.20;100.00
5500;BME280;2772;42.700;23.304;2023-08-08T07:18:13;95336.88;;;19.26;100.00
5500;BME280;2772;42.700;23.304;2023-08-08T07:20:42;95311.91;;;19.29;100.00
5500;BME280;2772;42.700;23.304;2023-08-08T07:23:09;95325.22;;;19.37;100.00
5500;BME280;2772;42.700;23.304;2023-08-08T07:25:36;95328.44;;;19.27;100.00
5500;BME280;2772;42.700;23.304;2023-08-08T07:28:03;95330.28;;;19.42;100.00
5500;BME280;2772;42.700;23.304;2023-08-08T07:30:30;95344.13;;;19.37;100.00
5500;BME280;2772;42.700;23.304;2023-08-08T07:32:57;95344.16;;;19.41;100.00
5500;BME280;2772;42.700;23.304;2023-08-08T07:35:23;95340.00;;;19.43;100.00
5500;BME280;2772;42.700;23.304;2023-08-08T07:37:51;95348.22;;;19.50;100.00
5500;BME280;2772;42.700;23.304;2023-08-08T07:40:20;95335.69;;;19.42;100.00
5500;BME280;2772;42.700;23.304;2023-08-08T07:42:48;95339.72;;;19.48;100.00
5500;BME280;2772;42.700;23.304;2023-08-08T07:45:15;95342.16;;;19.57;100.00
5500;BME280;2772;42.700;23.304;2023-08-08T07:47:42;95346.94;;;19.63;100.00
5500;BME280;2772;42.700;23.304;2023-08-08T07:50:09;95350.78;;;19.62;100.00
5500;BME280;2772;42.700;23.304;2023-08-08T07:52:37;95347.06;;;19.70;100.00
5500;BME280;2772;42.700;23.304;2023-08-08T07:55:06;95346.38;;;19.54;100.00
5500;BME280;2772;42.700;23.304;2023-08-08T07:57:33;95347.63;;;19.79;100.00
5500;BME280;2772;42.700;23.304;2023-08-08T08:00:00;95343.34;;;19.78;100.00
5500;BME280;2772;42.700;23.304;2023-08-08T08:02:33;95352.81;;;19.69;100.00
5500;BME280;2772;42.700;23.304;2023-08-08T08:04:59;95335.81;;;19.87;100.00
5500;BME280;2772;42.700;23.304;2023-08-08T08:07:26;95354.22;;;20.01;100.00
5500;BME280;2772;42.700;23.304;2023-08-08T08:09:53;95352.09;;;19.91;100.00
5500;BME280;2772;42.700;23.304;2023-08-08T08:12:21;95353.72;;;19.95;100.00
5500;BME280;2772;42.700;23.304;2023-08-08T08:14:48;95340.75;;;20.04;100.00
5500;BME280;2772;42.700;23.304;2023-08-08T08:17:15;95336.88;;;20.24;100.00
5500;BME280;2772;42.700;23.304;2023-08-08T08:19:42;95341.56;;;20.27;100.00
5500;BME280;2772;42.700;23.304;2023-08-08T08:22:08;95338.72;;;20.43;100.00
5500;BME280;2772;42.700;23.304;2023-08-08T08:24:35;95342.31;;;20.51;100.00
5500;BME280;2772;42.700;23.304;2023-08-08T08:27:02;95329.63;;;20.55;100.00
5500;BME280;2772;42.700;23.304;2023-08-08T08:29:30;95333.53;;;20.57;100.00
5500;BME280;2772;42.700;23.304;2023-08-08T08:31:58;95336.81;;;20.43;100.00
5500;BME280;2772;42.700;23.304;2023-08-08T08:34:25;95341.88;;;20.48;100.00
5500;BME280;2772;42.700;23.304;2023-08-08T08:36:51;95325.56;;;20.68;100.00
5500;BME280;2772;42.700;23.304;2023-08-08T08:39:18;95339.72;;;20.58;100.00
5500;BME280;2772;42.700;23.304;2023-08-08T08:41:49;95335.72;;;20.48;100.00
5500;BME280;2772;42.700;23.304;2023-08-08T08:44:21;95348.81;;;20.23;100.00
5500;BME280;2772;42.700;23.304;2023-08-08T08:46:50;95338.44;;;20.25;100.00
5500;BME280;2772;42.700;23.304;2023-08-08T08:49:18;95340.69;;;20.23;100.00
5500;BME280;2772;42.700;23.304;2023-08-08T08:51:48;95351.41;;;20.39;100.00
5500;BME280;2772;42.700;23.304;2023-08-08T08:54:15;95346.84;;;20.20;100.00
5500;BME280;2772;42.700;23.304;2023-08-08T08:56:42;95349.22;;;20.03;100.00
5500;BME280;2772;42.700;23.304;2023-08-08T08:59:09;95336.09;;;20.05;100.00
5500;BME280;2772;42.700;23.304;2023-08-08T09:01:36;95344.19;;;20.24;100.00
5500;BME280;2772;42.700;23.304;2023-08-08T09:04:05;95334.78;;;20.40;100.00
5500;BME280;2772;42.700;23.304;2023-08-08T09:06:34;95339.81;;;20.65;100.00
5500;BME280;2772;42.700;23.304;2023-08-08T09:09:04;95336.91;;;20.51;100.00
5500;BME280;2772;42.700;23.304;2023-08-08T09:11:31;95334.63;;;20.30;100.00
5500;BME280;2772;42.700;23.304;2023-08-08T09:13:58;95331.44;;;20.47;100.00
5500;BME280;2772;42.700;23.304;2023-08-08T09:16:25;95322.44;;;20.66;100.00
5500;BME280;2772;42.700;23.304;2023-08-08T09:18:52;95332.59;;;20.72;100.00
5500;BME280;2772;42.700;23.304;2023-08-08T09:21:20;95340.97;;;20.64;100.00
5500;BME280;2772;42.700;23.304;2023-08-08T09:23:47;95332.88;;;20.41;100.00
5500;BME280;2772;42.700;23.304;2023-08-08T09:26:14;95355.81;;;20.24;100.00
5500;BME280;2772;42.700;23.304;2023-08-08T09:28:42;95348.44;;;20.02;100.00
5500;BME280;2772;42.700;23.304;2023-08-08T09:31:09;95329.97;;;20.08;100.00
5500;BME280;2772;42.700;23.304;2023-08-08T09:33:38;95338.63;;;20.13;100.00
5500;BME280;2772;42.700;23.304;2023-08-08T09:36:06;95346.72;;;20.13;100.00
5500;BME280;2772;42.700;23.304;2023-08-08T09:38:34;95348.06;;;20.23;100.00
5500;BME280;2772;42.700;23.304;2023-08-08T09:41:01;95339.09;;;20.41;100.00
5500;BME280;2772;42.700;23.304;2023-08-08T09:43:29;95343.56;;;20.57;100.00
5500;BME280;2772;42.700;23.304;2023-08-08T09:45:55;95342.44;;;20.58;100.00
5500;BME280;2772;42.700;23.304;2023-08-08T09:48:23;95342.84;;;20.60;100.00
5500;BME280;2772;42.700;23.304;2023-08-08T09:50:50;95353.00;;;20.66;99.45
5500;BME280;2772;42.700;23.304;2023-08-08T09:53:18;95344.81;;;20.63;99.71
5500;BME280;2772;42.700;23.304;2023-08-08T09:55:47;95340.03;;;20.79;98.62
5500;BME280;2772;42.700;23.304;2023-08-08T09:58:15;95349.31;;;20.78;97.42
5500;BME280;2772;42.700;23.304;2023-08-08T10:00:42;95333.16;;;20.85;98.48
5500;BME280;2772;42.700;23.304;2023-08-08T10:03:09;95338.94;;;21.09;100.00
5500;BME280;2772;42.700;23.304;2023-08-08T10:05:36;95339.09;;;21.20;100.00
5500;BME280;2772;42.700;23.304;2023-08-08T10:08:04;95331.84;;;21.27;99.74
5500;BME280;2772;42.700;23.304;2023-08-08T10:10:31;95338.41;;;21.26;99.32
5500;BME280;2772;42.700;23.304;2023-08-08T10:13:01;95327.06;;;21.17;98.64
5500;BME280;2772;42.700;23.304;2023-08-08T10:15:28;95336.47;;;21.27;97.48
5500;BME280;2772;42.700;23.304;2023-08-08T10:17:55;95336.41;;;21.20;98.63
5500;BME280;2772;42.700;23.304;2023-08-08T10:20:24;95334.53;;;21.27;99.51
5500;BME280;2772;42.700;23.304;2023-08-08T10:22:52;95339.78;;;21.43;97.78
5500;BME280;2772;42.700;23.304;2023-08-08T10:25:23;95339.81;;;21.46;96.27
5500;BME280;2772;42.700;23.304;2023-08-08T10:28:00;95344.91;;;21.51;91.44
5500;BME280;2772;42.700;23.304;2023-08-08T10:30:40;95347.91;;;21.43;91.68
5500;BME280;2772;42.700;23.304;2023-08-08T10:33:15;95330.59;;;21.51;91.89
5500;BME280;2772;42.700;23.304;2023-08-08T10:35:53;95330.63;;;21.54;93.52
5500;BME280;2772;42.700;23.304;2023-08-08T10:38:20;95328.34;;;21.60;95.52
5500;BME280;2772;42.700;23.304;2023-08-08T10:40:55;95330.91;;;21.46;93.83
5500;BME280;2772;42.700;23.304;2023-08-08T10:43:25;95338.72;;;21.21;92.98
5500;BME280;2772;42.700;23.304;2023-08-08T10:45:57;95320.56;;;21.25;94.01
5500;BME280;2772;42.700;23.304;2023-08-08T10:48:24;95322.47;;;21.21;93.63
5500;BME280;2772;42.700;23.304;2023-08-08T10:50:54;95326.09;;;21.32;93.14
5500;BME280;2772;42.700;23.304;2023-08-08T10:53:22;95314.84;;;21.30;91.08
5500;BME280;2772;42.700;23.304;2023-08-08T10:55:57;95323.66;;;21.24;90.13
5500;BME280;2772;42.700;23.304;2023-08-08T10:58:34;95306.34;;;21.32;95.38
5500;BME280;2772;42.700;23.304;2023-08-08T11:01:03;95312.63;;;21.39;92.99
5500;BME280;2772;42.700;23.304;2023-08-08T11:03:34;95306.09;;;21.44;91.55
5500;BME280;2772;42.700;23.304;2023-08-08T11:06:01;95311.28;;;21.56;92.72
5500;BME280;2772;42.700;23.304;2023-08-08T11:08:29;95308.97;;;21.58;90.89
5500;BME280;2772;42.700;23.304;2023-08-08T11:10:57;95309.78;;;21.62;90.92
5500;BME280;2772;42.700;23.304;2023-08-08T11:13:24;95309.41;;;21.63;90.27
5500;BME280;2772;42.700;23.304;2023-08-08T11:15:51;95319.25;;;21.75;91.27
5500;BME280;2772;42.700;23.304;2023-08-08T11:18:19;95308.53;;;21.52;92.49
5500;BME280;2772;42.700;23.304;2023-08-08T11:20:46;95316.06;;;21.69;91.60
5500;BME280;2772;42.700;23.304;2023-08-08T11:23:13;95310.13;;;21.57;88.96
5500;BME280;2772;42.700;23.304;2023-08-08T11:25:41;95309.78;;;21.62;91.83
5500;BME280;2772;42.700;23.304;2023-08-08T11:28:09;95319.16;;;21.68;90.66
5500;BME280;2772;42.700;23.304;2023-08-08T11:30:38;95307.56;;;21.71;89.24
5500;BME280;2772;42.700;23.304;2023-08-08T11:33:05;95305.78;;;21.82;89.99
5500;BME280;2772;42.700;23.304;2023-08-08T11:35:34;95299.50;;;21.78;89.63
5500;BME280;2772;42.700;23.304;2023-08-08T11:38:02;95300.91;;;21.98;90.27
5500;BME280;2772;42.700;23.304;2023-08-08T11:40:30;95303.63;;;22.02;86.06
5500;BME280;2772;42.700;23.304;2023-08-08T11:42:58;95298.69;;;22.14;90.95
5500;BME280;2772;42.700;23.304;2023-08-08T11:45:25;95301.81;;;22.16;86.51
5500;BME280;2772;42.700;23.304;2023-08-08T11:47:54;95293.66;;;22.13;85.86
5500;BME280;2772;42.700;23.304;2023-08-08T11:50:22;95294.69;;;21.98;85.53
5500;BME280;2772;42.700;23.304;2023-08-08T11:52:52;95295.72;;;21.82;88.13
5500;BME280;2772;42.700;23.304;2023-08-08T11:55:20;95290.53;;;21.74;89.33
5500;BME280;2772;42.700;23.304;2023-08-08T11:57:48;95293.25;;;21.74;87.92
5500;BME280;2772;42.700;23.304;2023-08-08T12:00:16;95295.25;;;21.77;87.31
5500;BME280;2772;42.700;23.304;2023-08-08T12:02:43;95293.59;;;21.69;87.25
5500;BME280;2772;42.700;23.304;2023-08-08T12:05:12;95279.22;;;21.65;89.71
5500;BME280;2772;42.700;23.304;2023-08-08T12:07:40;95271.41;;;21.93;92.89
5500;BME280;2772;42.700;23.304;2023-08-08T12:10:15;95263.72;;;22.02;89.02
5500;BME280;2772;42.700;23.304;2023-08-08T12:12:43;95271.44;;;22.00;88.15
5500;BME280;2772;42.700;23.304;2023-08-08T12:15:10;95264.72;;;21.83;87.44
5500;BME280;2772;42.700;23.304;2023-08-08T12:17:37;95262.88;;;21.94;89.84
5500;BME280;2772;42.700;23.304;2023-08-08T12:20:05;95254.16;;;22.15;89.67
5500;BME280;2772;42.700;23.304;2023-08-08T12:22:32;95252.97;;;22.16;90.22
5500;BME280;2772;42.700;23.304;2023-08-08T12:24:59;95252.97;;;22.16;87.14
5500;BME280;2772;42.700;23.304;2023-08-08T12:27:29;95246.03;;;22.22;88.75
5500;BME280;2772;42.700;23.304;2023-08-08T12:29:56;95244.16;;;22.30;85.68
5500;BME280;2772;42.700;23.304;2023-08-08T12:32:25;95253.09;;;22.30;86.67
5500;BME280;2772;42.700;23.304;2023-08-08T12:34:54;95249.09;;;22.17;83.58
5500;BME280;2772;42.700;23.304;2023-08-08T12:37:21;95250.69;;;22.18;83.84
5500;BME280;2772;42.700;23.304;2023-08-08T12:39:48;95245.63;;;22.20;84.01
5500;BME280;2772;42.700;23.304;2023-08-08T12:42:15;95244.97;;;22.34;86.17
5500;BME280;2772;42.700;23.304;2023-08-08T12:44:44;95232.22;;;22.41;84.15
5500;BME280;2772;42.700;23.304;2023-08-08T12:47:12;95236.84;;;22.34;81.93
5500;BME280;2772;42.700;23.304;2023-08-08T12:49:39;95245.06;;;22.48;84.01
5500;BME280;2772;42.700;23.304;2023-08-08T12:52:06;95248.94;;;22.47;81.63
5500;BME280;2772;42.700;23.304;2023-08-08T12:54:32;95247.78;;;22.48;81.30
5500;BME280;2772;42.700;23.304;2023-08-08T12:56:59;95244.75;;;22.53;81.67
5500;BME280;2772;42.700;23.304;2023-08-08T12:59:26;95245.13;;;22.51;80.92
5500;BME280;2772;42.700;23.304;2023-08-08T13:01:54;95245.44;;;22.46;81.76
5500;BME280;2772;42.700;23.304;2023-08-08T13:04:21;95238.19;;;22.57;83.13
5500;BME280;2772;42.700;23.304;2023-08-08T13:06:48;95238.63;;;22.66;79.80
5500;BME280;2772;42.700;23.304;2023-08-08T13:09:15;95244.09;;;22.77;78.61
5500;BME280;2772;42.700;23.304;2023-08-08T13:11:42;95229.38;;;22.81;81.24
5500;BME280;2772;42.700;23.304;2023-08-08T13:14:09;95230.94;;;22.79;81.15
5500;BME280;2772;42.700;23.304;2023-08-08T13:16:35;95227.03;;;22.80;80.27
5500;BME280;2772;42.700;23.304;2023-08-08T13:19:03;95237.16;;;22.79;79.41
5500;BME280;2772;42.700;23.304;2023-08-08T13:21:31;95230.50;;;22.73;78.67
5500;BME280;2772;42.700;23.304;2023-08-08T13:23:57;95228.59;;;22.77;78.83
5500;BME280;2772;42.700;23.304;2023-08-08T13:26:24;95233.28;;;22.87;79.35
5500;BME280;2772;42.700;23.304;2023-08-08T13:28:51;95231.72;;;22.83;79.07
5500;BME280;2772;42.700;23.304;2023-08-08T13:31:18;95229.44;;;22.95;79.34
5500;BME280;2772;42.700;23.304;2023-08-08T13:33:45;95225.59;;;22.96;80.58
5500;BME280;2772;42.700;23.304;2023-08-08T13:36:13;95231.00;;;23.00;78.36